sensor_id;sensor_type;location;lat;lon;timestamp;P1;durP1;ratioP1;P2;durP2;ratioP2
1831;SDS011;1680;48.106;11.708;2022-09-09T00:00:05;2.83;;;1.80;;
1831;SDS011;1680;48.106;11.708;2022-09-09T00:02:32;1.90;;;1.80;;
1831;SDS011;1680;48.106;11.708;2022-09-09T00:04:59;2.40;;;1.90;;
1831;SDS011;1680;48.106;11.708;2022-09-09T00:07:32;2.10;;;1.80;;
1831;SDS011;1680;48.106;11.708;2022-09-09T00:10:05;1.60;;;1.50;;
1831;SDS011;1680;48.106;11.708;2022-09-09T00:12:36;2.20;;;2.00;;
1831;SDS011;1680;48.106;11.708;2022-09-09T00:15:06;1.70;;;1.60;;
1831;SDS011;1680;48.106;11.708;2022-09-09T00:17:35;2.50;;;1.80;;
1831;SDS011;1680;48.106;11.708;2022-09-09T00:20:05;1.90;;;1.70;;
1831;SDS011;1680;48.106;11.708;2022-09-09T00:22:37;1.83;;;1.70;;
1831;SDS011;1680;48.106;11.708;2022-09-09T00:25:10;1.70;;;1.60;;
1831;SDS011;1680;48.106;11.708;2022-09-09T00:27:39;2.33;;;1.97;;
1831;SDS011;1680;48.106;11.708;2022-09-09T00:30:13;2.30;;;1.73;;
1831;SDS011;1680;48.106;11.708;2022-09-09T00:32:41;1.77;;;1.67;;
1831;SDS011;1680;48.106;11.708;2022-09-09T00:35:14;2.10;;;2.00;;
1831;SDS011;1680;48.106;11.708;2022-09-09T00:37:43;3.60;;;2.00;;
1831;SDS011;1680;48.106;11.708;2022-09-09T00:40:22;2.17;;;1.70;;
1831;SDS011;1680;48.106;11.708;2022-09-09T00:42:49;2.70;;;2.07;;
1831;SDS011;1680;48.106;11.708;2022-09-09T00:45:19;3.50;;;1.90;;
1831;SDS011;1680;48.106;11.708;2022-09-09T00:47:52;2.10;;;1.90;;
1831;SDS011;1680;48.106;11.708;2022-09-09T00:50:25;2.03;;;1.93;;
1831;SDS011;1680;48.106;11.708;2022-09-09T00:52:56;1.80;;;1.70;;
1831;SDS011;1680;48.106;11.708;2022-09-09T00:55:27;3.90;;;1.90;;
1831;SDS011;1680;48.106;11.708;2022-09-09T00:57:58;1.90;;;1.70;;
1831;SDS011;1680;48.106;11.708;2022-09-09T01:00:25;2.10;;;1.90;;
1831;SDS011;1680;48.106;11.708;2022-09-09T01:02:56;2.33;;;2.10;;
1831;SDS011;1680;48.106;11.708;2022-09-09T01:05:30;2.20;;;2.00;;
1831;SDS011;1680;48.106;11.708;2022-09-09T01:08:00;2.70;;;1.80;;
1831;SDS011;1680;48.106;11.708;2022-09-09T01:10:30;1.90;;;1.70;;
1831;SDS011;1680;48.106;11.708;2022-09-09T01:13:02;2.53;;;1.80;;
1831;SDS011;1680;48.106;11.708;2022-09-09T01:15:30;2.20;;;1.93;;
1831;SDS011;1680;48.106;11.708;2022-09-09T01:17:59;1.90;;;1.70;;
1831;SDS011;1680;48.106;11.708;2022-09-09T01:20:29;2.00;;;1.87;;
1831;SDS011;1680;48.106;11.708;2022-09-09T01:23:03;2.43;;;2.07;;
1831;SDS011;1680;48.106;11.708;2022-09-09T01:28:18;4.53;;;1.73;;
1831;SDS011;1680;48.106;11.708;2022-09-09T01:30:45;2.83;;;2.20;;
1831;SDS011;1680;48.106;11.708;2022-09-09T01:33:12;1.90;;;1.80;;
1831;SDS011;1680;48.106;11.708;2022-09-09T01:35:42;1.70;;;1.60;;
1831;SDS011;1680;48.106;11.708;2022-09-09T01:38:09;3.63;;;1.97;;
1831;SDS011;1680;48.106;11.708;2022-09-09T01:40:36;1.93;;;1.70;;
1831;SDS011;1680;48.106;11.708;2022-09-09T01:43:03;2.00;;;1.90;;
1831;SDS011;1680;48.106;11.708;2022-09-09T01:45:31;2.30;;;2.10;;
1831;SDS011;1680;48.106;11.708;2022-09-09T01:47:57;2.33;;;1.70;;
1831;SDS011;1680;48.106;11.708;2022-09-09T01:50:24;1.60;;;1.50;;
1831;SDS011;1680;48.106;11.708;2022-09-09T01:52:51;2.10;;;1.63;;
1831;SDS011;1680;48.106;11.708;2022-09-09T01:55:19;1.97;;;1.80;;
1831;SDS011;1680;48.106;11.708;2022-09-09T01:57:50;1.90;;;1.50;;
1831;SDS011;1680;48.106;11.708;2022-09-09T02:00:20;3.80;;;1.63;;
1831;SDS011;1680;48.106;11.708;2022-09-09T02:02:52;2.13;;;1.93;;
1831;SDS011;1680;48.106;11.708;2022-09-09T02:05:24;2.07;;;1.70;;
1831;SDS011;1680;48.106;11.708;2022-09-09T02:07:55;2.80;;;1.70;;
1831;SDS011;1680;48.106;11.708;2022-09-09T02:10:27;2.70;;;1.73;;
1831;SDS011;1680;48.106;11.708;2022-09-09T02:12:58;1.80;;;1.60;;
1831;SDS011;1680;48.106;11.708;2022-09-09T02:15:29;2.47;;;1.50;;
1831;SDS011;1680;48.106;11.708;2022-09-09T02:17:57;2.00;;;1.80;;
1831;SDS011;1680;48.106;11.708;2022-09-09T02:20:24;1.97;;;1.80;;
1831;SDS011;1680;48.106;11.708;2022-09-09T02:22:52;1.97;;;1.87;;
1831;SDS011;1680;48.106;11.708;2022-09-09T02:25:21;2.20;;;1.73;;
1831;SDS011;1680;48.106;11.708;2022-09-09T02:27:48;1.73;;;1.57;;
1831;SDS011;1680;48.106;11.708;2022-09-09T02:30:16;1.80;;;1.70;;
1831;SDS011;1680;48.106;11.708;2022-09-09T02:32:43;2.00;;;1.90;;
1831;SDS011;1680;48.106;11.708;2022-09-09T02:35:14;2.37;;;2.17;;
1831;SDS011;1680;48.106;11.708;2022-09-09T02:37:41;2.40;;;1.63;;
1831;SDS011;1680;48.106;11.708;2022-09-09T02:40:09;2.27;;;1.60;;
1831;SDS011;1680;48.106;11.708;2022-09-09T02:42:38;2.13;;;1.80;;
1831;SDS011;1680;48.106;11.708;2022-09-09T02:45:05;1.77;;;1.67;;
1831;SDS011;1680;48.106;11.708;2022-09-09T02:47:33;1.90;;;1.70;;
1831;SDS011;1680;48.106;11.708;2022-09-09T02:50:04;2.00;;;1.70;;
1831;SDS011;1680;48.106;11.708;2022-09-09T02:52:38;2.37;;;2.13;;
1831;SDS011;1680;48.106;11.708;2022-09-09T02:55:10;2.30;;;1.77;;
1831;SDS011;1680;48.106;11.708;2022-09-09T02:57:37;1.90;;;1.70;;
1831;SDS011;1680;48.106;11.708;2022-09-09T03:00:06;1.83;;;1.73;;
1831;SDS011;1680;48.106;11.708;2022-09-09T03:02:33;2.90;;;1.97;;
1831;SDS011;1680;48.106;11.708;2022-09-09T03:04:59;2.07;;;1.53;;
1831;SDS011;1680;48.106;11.708;2022-09-09T03:07:26;1.93;;;1.83;;
1831;SDS011;1680;48.106;11.708;2022-09-09T03:09:54;1.70;;;1.60;;
1831;SDS011;1680;48.106;11.708;2022-09-09T03:12:20;1.77;;;1.67;;
1831;SDS011;1680;48.106;11.708;2022-09-09T03:14:47;2.00;;;1.80;;
1831;SDS011;1680;48.106;11.708;2022-09-09T03:17:13;1.60;;;1.50;;
1831;SDS011;1680;48.106;11.708;2022-09-09T03:19:40;1.70;;;1.60;;
1831;SDS011;1680;48.106;11.708;2022-09-09T03:22:07;2.10;;;1.70;;
1831;SDS011;1680;48.106;11.708;2022-09-09T03:24:35;1.97;;;1.60;;
1831;SDS011;1680;48.106;11.708;2022-09-09T03:27:03;2.10;;;1.60;;
1831;SDS011;1680;48.106;11.708;2022-09-09T03:29:29;1.63;;;1.53;;
1831;SDS011;1680;48.106;11.708;2022-09-09T03:31:56;1.40;;;1.30;;
1831;SDS011;1680;48.106;11.708;2022-09-09T03:34:22;1.93;;;1.77;;
1831;SDS011;1680;48.106;11.708;2022-09-09T03:36:49;1.70;;;1.60;;
1831;SDS011;1680;48.106;11.708;2022-09-09T03:39:15;1.70;;;1.60;;
1831;SDS011;1680;48.106;11.708;2022-09-09T03:41:42;2.03;;;1.77;;
1831;SDS011;1680;48.106;11.708;2022-09-09T03:44:11;3.60;;;1.90;;
1831;SDS011;1680;48.106;11.708;2022-09-09T03:46:38;1.90;;;1.80;;
1831;SDS011;1680;48.106;11.708;2022-09-09T03:49:04;1.60;;;1.50;;
1831;SDS011;1680;48.106;11.708;2022-09-09T03:51:31;2.23;;;1.37;;
1831;SDS011;1680;48.106;11.708;2022-09-09T03:54:01;2.90;;;1.30;;
1831;SDS011;1680;48.106;11.708;2022-09-09T03:56:30;1.70;;;1.60;;
1831;SDS011;1680;48.106;11.708;2022-09-09T03:58:56;1.60;;;1.50;;
1831;SDS011;1680;48.106;11.708;2022-09-09T04:01:24;2.10;;;1.90;;
1831;SDS011;1680;48.106;11.708;2022-09-09T04:03:51;6.97;;;1.80;;
1831;SDS011;1680;48.106;11.708;2022-09-09T04:06:17;1.50;;;1.40;;
1831;SDS011;1680;48.106;11.708;2022-09-09T04:08:46;1.80;;;1.70;;
1831;SDS011;1680;48.106;11.708;2022-09-09T04:11:13;2.03;;;1.70;;
1831;SDS011;1680;48.106;11.708;2022-09-09T04:13:40;4.07;;;1.70;;
1831;SDS011;1680;48.106;11.708;2022-09-09T04:16:07;1.77;;;1.47;;
1831;SDS011;1680;48.106;11.708;2022-09-09T04:18:35;1.77;;;1.67;;
1831;SDS011;1680;48.106;11.708;2022-09-09T04:21:02;3.73;;;1.67;;
1831;SDS011;1680;48.106;11.708;2022-09-09T04:23:29;1.50;;;1.40;;
1831;SDS011;1680;48.106;11.708;2022-09-09T04:25:56;4.27;;;1.60;;
1831;SDS011;1680;48.106;11.708;2022-09-09T04:28:24;2.60;;;1.77;;
1831;SDS011;1680;48.106;11.708;2022-09-09T04:30:51;2.57;;;1.63;;
1831;SDS011;1680;48.106;11.708;2022-09-09T04:33:18;1.40;;;1.30;;
1831;SDS011;1680;48.106;11.708;2022-09-09T04:35:46;2.03;;;1.60;;
1831;SDS011;1680;48.106;11.708;2022-09-09T04:38:13;1.60;;;1.50;;
1831;SDS011;1680;48.106;11.708;2022-09-09T04:40:41;1.63;;;1.53;;
1831;SDS011;1680;48.106;11.708;2022-09-09T04:43:08;2.50;;;1.80;;
1831;SDS011;1680;48.106;11.708;2022-09-09T04:45:35;1.60;;;1.50;;
1831;SDS011;1680;48.106;11.708;2022-09-09T04:48:02;3.00;;;1.60;;
1831;SDS011;1680;48.106;11.708;2022-09-09T04:50:29;1.67;;;1.47;;
1831;SDS011;1680;48.106;11.708;2022-09-09T04:52:56;2.37;;;1.90;;
1831;SDS011;1680;48.106;11.708;2022-09-09T04:55:25;5.63;;;1.50;;
1831;SDS011;1680;48.106;11.708;2022-09-09T04:57:52;4.30;;;1.80;;
1831;SDS011;1680;48.106;11.708;2022-09-09T05:00:19;1.67;;;1.40;;
1831;SDS011;1680;48.106;11.708;2022-09-09T05:02:45;1.70;;;1.60;;
1831;SDS011;1680;48.106;11.708;2022-09-09T05:05:13;1.40;;;1.30;;
1831;SDS011;1680;48.106;11.708;2022-09-09T05:07:39;3.70;;;2.30;;
1831;SDS011;1680;48.106;11.708;2022-09-09T05:10:08;2.43;;;1.83;;
1831;SDS011;1680;48.106;11.708;2022-09-09T05:12:35;4.40;;;2.33;;
1831;SDS011;1680;48.106;11.708;2022-09-09T05:15:02;3.10;;;2.40;;
1831;SDS011;1680;48.106;11.708;2022-09-09T05:17:28;2.33;;;1.90;;
1831;SDS011;1680;48.106;11.708;2022-09-09T05:19:55;3.83;;;2.33;;
1831;SDS011;1680;48.106;11.708;2022-09-09T05:22:23;2.90;;;1.97;;
1831;SDS011;1680;48.106;11.708;2022-09-09T05:24:49;3.47;;;1.60;;
1831;SDS011;1680;48.106;11.708;2022-09-09T05:27:18;2.00;;;1.80;;
1831;SDS011;1680;48.106;11.708;2022-09-09T05:29:44;2.10;;;1.80;;
1831;SDS011;1680;48.106;11.708;2022-09-09T05:32:11;2.10;;;1.50;;
1831;SDS011;1680;48.106;11.708;2022-09-09T05:34:38;2.30;;;1.77;;
1831;SDS011;1680;48.106;11.708;2022-09-09T05:37:05;2.80;;;1.80;;
1831;SDS011;1680;48.106;11.708;2022-09-09T05:39:32;2.10;;;2.00;;
1831;SDS011;1680;48.106;11.708;2022-09-09T05:42:01;1.90;;;1.43;;
1831;SDS011;1680;48.106;11.708;2022-09-09T05:44:29;1.97;;;1.77;;
1831;SDS011;1680;48.106;11.708;2022-09-09T05:46:55;2.33;;;2.13;;
1831;SDS011;1680;48.106;11.708;2022-09-09T05:49:25;2.93;;;2.20;;
1831;SDS011;1680;48.106;11.708;2022-09-09T05:51:51;2.33;;;1.70;;
1831;SDS011;1680;48.106;11.708;2022-09-09T05:54:21;2.57;;;1.80;;
1831;SDS011;1680;48.106;11.708;2022-09-09T05:56:48;1.60;;;1.50;;
1831;SDS011;1680;48.106;11.708;2022-09-09T05:59:17;2.13;;;1.80;;
1831;SDS011;1680;48.106;11.708;2022-09-09T06:01:45;1.50;;;1.40;;
1831;SDS011;1680;48.106;11.708;2022-09-09T06:04:12;2.70;;;1.53;;
1831;SDS011;1680;48.106;11.708;2022-09-09T06:06:39;1.60;;;1.50;;
1831;SDS011;1680;48.106;11.708;2022-09-09T06:09:07;3.67;;;1.57;;
1831;SDS011;1680;48.106;11.708;2022-09-09T06:11:35;1.63;;;1.53;;
1831;SDS011;1680;48.106;11.708;2022-09-09T06:14:02;1.50;;;1.40;;
1831;SDS011;1680;48.106;11.708;2022-09-09T06:16:29;2.83;;;1.50;;
1831;SDS011;1680;48.106;11.708;2022-09-09T06:18:59;1.63;;;1.53;;
1831;SDS011;1680;48.106;11.708;2022-09-09T06:21:26;1.50;;;1.40;;
1831;SDS011;1680;48.106;11.708;2022-09-09T06:23:53;3.47;;;2.07;;
1831;SDS011;1680;48.106;11.708;2022-09-09T06:26:20;2.60;;;1.50;;
1831;SDS011;1680;48.106;11.708;2022-09-09T06:28:47;1.70;;;1.50;;
1831;SDS011;1680;48.106;11.708;2022-09-09T06:31:15;2.07;;;1.60;;
1831;SDS011;1680;48.106;11.708;2022-09-09T06:33:43;1.50;;;1.40;;
1831;SDS011;1680;48.106;11.708;2022-09-09T06:36:12;1.87;;;1.47;;
1831;SDS011;1680;48.106;11.708;2022-09-09T06:38:38;1.80;;;1.33;;
1831;SDS011;1680;48.106;11.708;2022-09-09T06:41:05;1.80;;;1.33;;
1831;SDS011;1680;48.106;11.708;2022-09-09T06:43:31;1.30;;;1.20;;
1831;SDS011;1680;48.106;11.708;2022-09-09T06:45:59;1.60;;;1.33;;
1831;SDS011;1680;48.106;11.708;2022-09-09T06:48:26;1.53;;;1.40;;
1831;SDS011;1680;48.106;11.708;2022-09-09T06:50:59;1.70;;;1.60;;
1831;SDS011;1680;48.106;11.708;2022-09-09T06:53:28;6.10;;;1.60;;
1831;SDS011;1680;48.106;11.708;2022-09-09T06:55:54;2.40;;;2.00;;
1831;SDS011;1680;48.106;11.708;2022-09-09T06:58:21;3.03;;;2.37;;
1831;SDS011;1680;48.106;11.708;2022-09-09T07:00:48;2.40;;;2.03;;
1831;SDS011;1680;48.106;11.708;2022-09-09T07:03:14;3.00;;;1.87;;
1831;SDS011;1680;48.106;11.708;2022-09-09T07:05:41;1.90;;;1.60;;
1831;SDS011;1680;48.106;11.708;2022-09-09T07:08:10;1.60;;;1.30;;
1831;SDS011;1680;48.106;11.708;2022-09-09T07:10:38;2.13;;;1.33;;
1831;SDS011;1680;48.106;11.708;2022-09-09T07:13:04;2.80;;;1.40;;
1831;SDS011;1680;48.106;11.708;2022-09-09T07:15:32;2.73;;;1.43;;
1831;SDS011;1680;48.106;11.708;2022-09-09T07:18:00;1.40;;;1.30;;
1831;SDS011;1680;48.106;11.708;2022-09-09T07:20:27;1.50;;;1.40;;
1831;SDS011;1680;48.106;11.708;2022-09-09T07:22:54;2.10;;;1.63;;
1831;SDS011;1680;48.106;11.708;2022-09-09T07:25:20;3.73;;;1.40;;
1831;SDS011;1680;48.106;11.708;2022-09-09T07:27:48;1.67;;;1.57;;
1831;SDS011;1680;48.106;11.708;2022-09-09T07:30:15;1.73;;;1.63;;
1831;SDS011;1680;48.106;11.708;2022-09-09T07:32:41;1.97;;;1.80;;
1831;SDS011;1680;48.106;11.708;2022-09-09T07:35:08;1.63;;;1.53;;
1831;SDS011;1680;48.106;11.708;2022-09-09T07:37:36;3.43;;;1.77;;
1831;SDS011;1680;48.106;11.708;2022-09-09T07:40:03;1.50;;;1.40;;
1831;SDS011;1680;48.106;11.708;2022-09-09T07:42:30;3.20;;;1.73;;
1831;SDS011;1680;48.106;11.708;2022-09-09T07:44:58;1.83;;;1.40;;
1831;SDS011;1680;48.106;11.708;2022-09-09T07:47:24;2.20;;;1.63;;
1831;SDS011;1680;48.106;11.708;2022-09-09T07:49:50;2.63;;;1.43;;
1831;SDS011;1680;48.106;11.708;2022-09-09T07:52:17;1.43;;;1.30;;
1831;SDS011;1680;48.106;11.708;2022-09-09T07:54:45;1.77;;;1.23;;
1831;SDS011;1680;48.106;11.708;2022-09-09T07:57:11;1.70;;;1.50;;
1831;SDS011;1680;48.106;11.708;2022-09-09T07:59:38;1.57;;;1.47;;
1831;SDS011;1680;48.106;11.708;2022-09-09T08:02:06;2.53;;;1.40;;
1831;SDS011;1680;48.106;11.708;2022-09-09T08:04:32;3.87;;;1.50;;
1831;SDS011;1680;48.106;11.708;2022-09-09T08:07:00;1.80;;;1.70;;
1831;SDS011;1680;48.106;11.708;2022-09-09T08:09:28;2.00;;;1.80;;
1831;SDS011;1680;48.106;11.708;2022-09-09T08:11:54;2.10;;;1.50;;
1831;SDS011;1680;48.106;11.708;2022-09-09T08:14:22;1.73;;;1.60;;
1831;SDS011;1680;48.106;11.708;2022-09-09T08:16:49;1.33;;;1.20;;
1831;SDS011;1680;48.106;11.708;2022-09-09T08:19:17;2.23;;;1.50;;
1831;SDS011;1680;48.106;11.708;2022-09-09T08:21:43;1.30;;;1.20;;
1831;SDS011;1680;48.106;11.708;2022-09-09T08:24:10;1.70;;;1.40;;
1831;SDS011;1680;48.106;11.708;2022-09-09T08:26:38;2.23;;;1.60;;
1831;SDS011;1680;48.106;11.708;2022-09-09T08:29:05;1.43;;;1.30;;
1831;SDS011;1680;48.106;11.708;2022-09-09T08:31:33;1.57;;;1.37;;
1831;SDS011;1680;48.106;11.708;2022-09-09T08:34:00;1.93;;;1.33;;
1831;SDS011;1680;48.106;11.708;2022-09-09T08:36:30;1.30;;;1.20;;
1831;SDS011;1680;48.106;11.708;2022-09-09T08:38:58;1.50;;;1.20;;
1831;SDS011;1680;48.106;11.708;2022-09-09T08:41:34;3.40;;;1.40;;
1831;SDS011;1680;48.106;11.708;2022-09-09T08:44:04;1.30;;;1.20;;
1831;SDS011;1680;48.106;11.708;2022-09-09T08:46:34;2.30;;;1.40;;
1831;SDS011;1680;48.106;11.708;2022-09-09T08:49:04;1.50;;;1.40;;
1831;SDS011;1680;48.106;11.708;2022-09-09T08:51:34;1.20;;;1.10;;
1831;SDS011;1680;48.106;11.708;2022-09-09T08:54:02;1.87;;;1.30;;
1831;SDS011;1680;48.106;11.708;2022-09-09T08:56:29;1.47;;;1.30;;
1831;SDS011;1680;48.106;11.708;2022-09-09T08:58:58;2.40;;;1.60;;
1831;SDS011;1680;48.106;11.708;2022-09-09T09:01:29;1.80;;;1.50;;
1831;SDS011;1680;48.106;11.708;2022-09-09T09:04:00;2.10;;;1.57;;
1831;SDS011;1680;48.106;11.708;2022-09-09T09:06:31;2.53;;;1.30;;
1831;SDS011;1680;48.106;11.708;2022-09-09T09:09:05;2.00;;;1.50;;
1831;SDS011;1680;48.106;11.708;2022-09-09T09:11:36;1.97;;;1.70;;
1831;SDS011;1680;48.106;11.708;2022-09-09T09:14:03;1.57;;;1.47;;
1831;SDS011;1680;48.106;11.708;2022-09-09T09:16:34;1.80;;;1.47;;
1831;SDS011;1680;48.106;11.708;2022-09-09T09:19:04;1.83;;;1.43;;
1831;SDS011;1680;48.106;11.708;2022-09-09T09:21:34;2.00;;;1.20;;
1831;SDS011;1680;48.106;11.708;2022-09-09T09:24:01;1.40;;;1.30;;
1831;SDS011;1680;48.106;11.708;2022-09-09T09:26:31;2.37;;;2.20;;
1831;SDS011;1680;48.106;11.708;2022-09-09T09:28:59;2.17;;;1.97;;
1831;SDS011;1680;48.106;11.708;2022-09-09T09:31:27;1.77;;;1.67;;
1831;SDS011;1680;48.106;11.708;2022-09-09T09:33:54;2.03;;;1.67;;
1831;SDS011;1680;48.106;11.708;2022-09-09T09:36:21;1.77;;;1.10;;
1831;SDS011;1680;48.106;11.708;2022-09-09T09:38:54;1.70;;;1.40;;
1831;SDS011;1680;48.106;11.708;2022-09-09T09:41:32;1.57;;;1.40;;
1831;SDS011;1680;48.106;11.708;2022-09-09T09:43:59;1.70;;;1.60;;
1831;SDS011;1680;48.106;11.708;2022-09-09T09:46:26;1.73;;;1.50;;
1831;SDS011;1680;48.106;11.708;2022-09-09T09:48:56;1.60;;;1.50;;
1831;SDS011;1680;48.106;11.708;2022-09-09T09:51:23;1.77;;;1.53;;
1831;SDS011;1680;48.106;11.708;2022-09-09T09:53:50;1.77;;;1.67;;
1831;SDS011;1680;48.106;11.708;2022-09-09T09:56:26;2.13;;;1.63;;
1831;SDS011;1680;48.106;11.708;2022-09-09T09:58:55;1.93;;;1.70;;
1831;SDS011;1680;48.106;11.708;2022-09-09T10:01:22;1.30;;;1.20;;
1831;SDS011;1680;48.106;11.708;2022-09-09T10:03:50;1.83;;;1.23;;
1831;SDS011;1680;48.106;11.708;2022-09-09T10:06:17;1.70;;;1.60;;
1831;SDS011;1680;48.106;11.708;2022-09-09T10:08:44;1.73;;;1.50;;
1831;SDS011;1680;48.106;11.708;2022-09-09T10:11:24;1.50;;;1.30;;
1831;SDS011;1680;48.106;11.708;2022-09-09T10:13:56;2.23;;;1.50;;
1831;SDS011;1680;48.106;11.708;2022-09-09T10:16:25;1.33;;;1.20;;
1831;SDS011;1680;48.106;11.708;2022-09-09T10:18:57;2.63;;;1.43;;
1831;SDS011;1680;48.106;11.708;2022-09-09T10:21:28;3.63;;;1.50;;
1831;SDS011;1680;48.106;11.708;2022-09-09T10:24:12;2.80;;;1.80;;
1831;SDS011;1680;48.106;11.708;2022-09-09T10:26:44;2.10;;;1.20;;
1831;SDS011;1680;48.106;11.708;2022-09-09T10:29:21;1.40;;;1.30;;
1831;SDS011;1680;48.106;11.708;2022-09-09T10:31:52;2.40;;;1.60;;
1831;SDS011;1680;48.106;11.708;2022-09-09T10:34:29;3.10;;;1.40;;
1831;SDS011;1680;48.106;11.708;2022-09-09T10:37:01;2.43;;;1.40;;
1831;SDS011;1680;48.106;11.708;2022-09-09T10:39:33;2.50;;;1.30;;
1831;SDS011;1680;48.106;11.708;2022-09-09T10:42:02;4.40;;;1.30;;
1831;SDS011;1680;48.106;11.708;2022-09-09T10:44:36;1.30;;;1.20;;
1831;SDS011;1680;48.106;11.708;2022-09-09T10:47:13;1.93;;;1.50;;
1831;SDS011;1680;48.106;11.708;2022-09-09T10:49:52;1.93;;;1.33;;
1831;SDS011;1680;48.106;11.708;2022-09-09T10:52:24;2.33;;;1.47;;
1831;SDS011;1680;48.106;11.708;2022-09-09T10:54:55;1.40;;;1.30;;
1831;SDS011;1680;48.106;11.708;2022-09-09T10:57:25;2.30;;;1.20;;
1831;SDS011;1680;48.106;11.708;2022-09-09T10:59:58;2.90;;;1.30;;
1831;SDS011;1680;48.106;11.708;2022-09-09T11:02:26;1.70;;;1.30;;
1831;SDS011;1680;48.106;11.708;2022-09-09T11:04:53;1.80;;;1.40;;
1831;SDS011;1680;48.106;11.708;2022-09-09T11:07:24;1.40;;;1.30;;
1831;SDS011;1680;48.106;11.708;2022-09-09T11:09:53;1.20;;;1.10;;
1831;SDS011;1680;48.106;11.708;2022-09-09T11:12:21;1.10;;;1.00;;
1831;SDS011;1680;48.106;11.708;2022-09-09T11:14:49;1.57;;;1.30;;
1831;SDS011;1680;48.106;11.708;2022-09-09T11:17:19;1.10;;;1.00;;
1831;SDS011;1680;48.106;11.708;2022-09-09T11:19:46;1.73;;;1.33;;
1831;SDS011;1680;48.106;11.708;2022-09-09T11:22:15;1.37;;;1.20;;
1831;SDS011;1680;48.106;11.708;2022-09-09T11:24:44;1.20;;;1.10;;
1831;SDS011;1680;48.106;11.708;2022-09-09T11:27:13;1.20;;;1.07;;
1831;SDS011;1680;48.106;11.708;2022-09-09T11:29:45;1.77;;;1.10;;
1831;SDS011;1680;48.106;11.708;2022-09-09T11:32:20;1.63;;;1.03;;
1831;SDS011;1680;48.106;11.708;2022-09-09T11:34:53;1.20;;;1.10;;
1831;SDS011;1680;48.106;11.708;2022-09-09T11:40:19;1.33;;;1.10;;
1831;SDS011;1680;48.106;11.708;2022-09-09T11:42:46;1.30;;;1.10;;
1831;SDS011;1680;48.106;11.708;2022-09-09T11:45:22;1.13;;;0.87;;
1831;SDS011;1680;48.106;11.708;2022-09-09T11:47:55;1.53;;;1.00;;
1831;SDS011;1680;48.106;11.708;2022-09-09T11:50:35;1.77;;;1.20;;
1831;SDS011;1680;48.106;11.708;2022-09-09T11:53:15;1.30;;;1.10;;
1831;SDS011;1680;48.106;11.708;2022-09-09T11:55:45;1.07;;;0.97;;
1831;SDS011;1680;48.106;11.708;2022-09-09T11:58:15;1.30;;;1.20;;
1831;SDS011;1680;48.106;11.708;2022-09-09T12:00:43;1.30;;;1.03;;
1831;SDS011;1680;48.106;11.708;2022-09-09T12:03:30;1.57;;;1.10;;
1831;SDS011;1680;48.106;11.708;2022-09-09T12:05:58;0.87;;;0.80;;
1831;SDS011;1680;48.106;11.708;2022-09-09T12:08:26;1.73;;;1.13;;
1831;SDS011;1680;48.106;11.708;2022-09-09T12:10:54;1.27;;;1.10;;
1831;SDS011;1680;48.106;11.708;2022-09-09T12:13:22;1.33;;;1.00;;
1831;SDS011;1680;48.106;11.708;2022-09-09T12:15:50;1.00;;;0.90;;
1831;SDS011;1680;48.106;11.708;2022-09-09T12:18:22;1.10;;;0.90;;
1831;SDS011;1680;48.106;11.708;2022-09-09T12:20:52;1.63;;;0.93;;
1831;SDS011;1680;48.106;11.708;2022-09-09T12:23:27;2.93;;;1.00;;
1831;SDS011;1680;48.106;11.708;2022-09-09T12:26:03;1.50;;;1.07;;
1831;SDS011;1680;48.106;11.708;2022-09-09T12:28:39;1.40;;;0.90;;
1831;SDS011;1680;48.106;11.708;2022-09-09T12:31:10;1.33;;;1.00;;
1831;SDS011;1680;48.106;11.708;2022-09-09T12:33:44;1.20;;;1.10;;
1831;SDS011;1680;48.106;11.708;2022-09-09T12:36:13;1.67;;;1.07;;
1831;SDS011;1680;48.106;11.708;2022-09-09T12:38:41;1.13;;;1.00;;
1831;SDS011;1680;48.106;11.708;2022-09-09T12:41:17;1.00;;;0.90;;
1831;SDS011;1680;48.106;11.708;2022-09-09T12:43:44;1.00;;;0.90;;
1831;SDS011;1680;48.106;11.708;2022-09-09T12:46:14;1.83;;;1.07;;
1831;SDS011;1680;48.106;11.708;2022-09-09T12:48:45;1.13;;;1.03;;
1831;SDS011;1680;48.106;11.708;2022-09-09T12:51:16;1.10;;;1.00;;
1831;SDS011;1680;48.106;11.708;2022-09-09T12:53:44;2.87;;;1.37;;
1831;SDS011;1680;48.106;11.708;2022-09-09T12:56:18;1.40;;;1.10;;
1831;SDS011;1680;48.106;11.708;2022-09-09T12:58:45;1.00;;;0.90;;
1831;SDS011;1680;48.106;11.708;2022-09-09T13:01:18;1.63;;;0.90;;
1831;SDS011;1680;48.106;11.708;2022-09-09T13:03:48;1.00;;;0.90;;
1831;SDS011;1680;48.106;11.708;2022-09-09T13:06:18;3.13;;;1.10;;
1831;SDS011;1680;48.106;11.708;2022-09-09T13:08:47;1.20;;;0.97;;
1831;SDS011;1680;48.106;11.708;2022-09-09T13:11:15;1.53;;;1.10;;
1831;SDS011;1680;48.106;11.708;2022-09-09T13:13:43;1.43;;;1.00;;
1831;SDS011;1680;48.106;11.708;2022-09-09T13:16:18;1.23;;;1.13;;
1831;SDS011;1680;48.106;11.708;2022-09-09T13:18:46;1.10;;;1.00;;
1831;SDS011;1680;48.106;11.708;2022-09-09T13:21:14;1.53;;;0.70;;
1831;SDS011;1680;48.106;11.708;2022-09-09T13:23:40;0.80;;;0.80;;
1831;SDS011;1680;48.106;11.708;2022-09-09T13:26:19;1.97;;;1.10;;
1831;SDS011;1680;48.106;11.708;2022-09-09T13:28:46;1.30;;;0.90;;
1831;SDS011;1680;48.106;11.708;2022-09-09T13:31:19;1.03;;;1.00;;
1831;SDS011;1680;48.106;11.708;2022-09-09T13:33:47;0.80;;;0.80;;
1831;SDS011;1680;48.106;11.708;2022-09-09T13:36:15;1.10;;;0.93;;
1831;SDS011;1680;48.106;11.708;2022-09-09T13:38:52;1.47;;;0.93;;
1831;SDS011;1680;48.106;11.708;2022-09-09T13:41:19;1.20;;;0.93;;
1831;SDS011;1680;48.106;11.708;2022-09-09T13:43:46;1.00;;;0.80;;
1831;SDS011;1680;48.106;11.708;2022-09-09T13:46:24;1.00;;;0.90;;
1831;SDS011;1680;48.106;11.708;2022-09-09T13:48:55;0.70;;;0.70;;
1831;SDS011;1680;48.106;11.708;2022-09-09T13:51:26;2.10;;;0.77;;
1831;SDS011;1680;48.106;11.708;2022-09-09T13:53:54;0.80;;;0.80;;
1831;SDS011;1680;48.106;11.708;2022-09-09T13:56:22;1.20;;;1.00;;
1831;SDS011;1680;48.106;11.708;2022-09-09T13:58:49;3.00;;;0.93;;
1831;SDS011;1680;48.106;11.708;2022-09-09T14:01:16;2.00;;;1.20;;
1831;SDS011;1680;48.106;11.708;2022-09-09T14:03:42;1.00;;;0.90;;
1831;SDS011;1680;48.106;11.708;2022-09-09T14:06:09;1.67;;;1.10;;
1831;SDS011;1680;48.106;11.708;2022-09-09T14:08:37;1.47;;;1.00;;
1831;SDS011;1680;48.106;11.708;2022-09-09T14:11:05;0.70;;;0.70;;
1831;SDS011;1680;48.106;11.708;2022-09-09T14:13:32;2.07;;;1.10;;
1831;SDS011;1680;48.106;11.708;2022-09-09T14:15:58;0.90;;;0.90;;
1831;SDS011;1680;48.106;11.708;2022-09-09T14:18:25;0.83;;;0.83;;
1831;SDS011;1680;48.106;11.708;2022-09-09T14:20:51;2.00;;;1.30;;
1831;SDS011;1680;48.106;11.708;2022-09-09T14:23:18;1.50;;;0.87;;
1831;SDS011;1680;48.106;11.708;2022-09-09T14:25:48;1.93;;;1.10;;
1831;SDS011;1680;48.106;11.708;2022-09-09T14:28:15;1.00;;;0.90;;
1831;SDS011;1680;48.106;11.708;2022-09-09T14:30:42;1.67;;;1.20;;
1831;SDS011;1680;48.106;11.708;2022-09-09T14:33:10;2.40;;;1.03;;
1831;SDS011;1680;48.106;11.708;2022-09-09T14:35:36;1.10;;;0.90;;
1831;SDS011;1680;48.106;11.708;2022-09-09T14:38:04;2.47;;;1.13;;
1831;SDS011;1680;48.106;11.708;2022-09-09T14:40:30;1.10;;;0.90;;
1831;SDS011;1680;48.106;11.708;2022-09-09T14:42:58;1.40;;;1.30;;
1831;SDS011;1680;48.106;11.708;2022-09-09T14:45:25;1.37;;;0.93;;
1831;SDS011;1680;48.106;11.708;2022-09-09T14:47:52;2.10;;;1.17;;
1831;SDS011;1680;48.106;11.708;2022-09-09T14:50:19;1.80;;;1.10;;
1831;SDS011;1680;48.106;11.708;2022-09-09T14:52:45;1.40;;;1.10;;
1831;SDS011;1680;48.106;11.708;2022-09-09T14:55:12;2.33;;;1.13;;
1831;SDS011;1680;48.106;11.708;2022-09-09T14:57:38;1.50;;;1.10;;
1831;SDS011;1680;48.106;11.708;2022-09-09T15:00:08;2.40;;;1.30;;
1831;SDS011;1680;48.106;11.708;2022-09-09T15:02:35;1.93;;;1.00;;
1831;SDS011;1680;48.106;11.708;2022-09-09T15:05:01;2.47;;;1.20;;
1831;SDS011;1680;48.106;11.708;2022-09-09T15:07:28;1.20;;;1.10;;
1831;SDS011;1680;48.106;11.708;2022-09-09T15:09:55;1.60;;;1.20;;
1831;SDS011;1680;48.106;11.708;2022-09-09T15:12:22;1.43;;;1.00;;
1831;SDS011;1680;48.106;11.708;2022-09-09T15:14:48;1.33;;;1.20;;